UAL1655 KIAD-KJFK
Flight info
| Callsign | UAL1655 |
|---|---|
| Flight time | N/A |
| Altitude | 29000 |
| Route | JCOBY4 AGARD DONIL/N0410F170 T315 PANZE V44 CAMRN |
| Aircraft | B763/H-SDE3FGHIM3RWXY/LB1 |
Departure
| Time | 2026-05-06 12:32 |
|---|---|
| Airport | Washington Dulles International Airport (KIAD) |
Arrival
| Time | N/A |
|---|---|
| Airport | John F. Kennedy International Airport (KJFK) |
| Time | Latitude | Longitude | Altitude | Speed | Heading |
|---|---|---|---|---|---|
| 2026-05-06 12:15 | 38.94595 | -77.44101 | 326 ft | 0 kts | 179° |
| 2026-05-06 12:16 | 38.94594 | -77.44101 | 326 ft | 0 kts | 179° |
| 2026-05-06 12:18 | 38.94593 | -77.44101 | 326 ft | 0 kts | 179° |
| 2026-05-06 12:19 | 38.94592 | -77.44101 | 326 ft | 0 kts | 179° |
| 2026-05-06 12:20 | 38.94591 | -77.44101 | 326 ft | 0 kts | 179° |
| 2026-05-06 12:22 | 38.94590 | -77.44101 | 326 ft | 0 kts | 179° |
| 2026-05-06 12:22 | 38.94599 | -77.44101 | 326 ft | 2 kts | 179° |
| 2026-05-06 12:22 | 38.94618 | -77.44101 | 326 ft | 3 kts | 179° |
| 2026-05-06 12:23 | 38.94638 | -77.44102 | 326 ft | 3 kts | 179° |
| 2026-05-06 12:23 | 38.94651 | -77.44102 | 326 ft | 3 kts | 179° |
| 2026-05-06 12:23 | 38.94644 | -77.44105 | 326 ft | 5 kts | 208° |
| 2026-05-06 12:23 | 38.94660 | -77.44183 | 326 ft | 6 kts | 291° |
| 2026-05-06 12:24 | 38.94666 | -77.44212 | 326 ft | 11 kts | 284° |
| 2026-05-06 12:24 | 38.94675 | -77.44304 | 326 ft | 8 kts | 272° |
| 2026-05-06 12:24 | 38.94677 | -77.44435 | 326 ft | 20 kts | 271° |
| 2026-05-06 12:24 | 38.94678 | -77.44615 | 326 ft | 20 kts | 269° |
| 2026-05-06 12:25 | 38.94677 | -77.44793 | 326 ft | 23 kts | 270° |
| 2026-05-06 12:25 | 38.94676 | -77.45021 | 326 ft | 24 kts | 270° |
| 2026-05-06 12:25 | 38.94675 | -77.45211 | 326 ft | 20 kts | 269° |
| 2026-05-06 12:25 | 38.94674 | -77.45368 | 326 ft | 15 kts | 270° |
| 2026-05-06 12:26 | 38.94676 | -77.45493 | 326 ft | 14 kts | 270° |
| 2026-05-06 12:26 | 38.94676 | -77.45599 | 326 ft | 10 kts | 270° |
| 2026-05-06 12:26 | 38.94676 | -77.45691 | 326 ft | 11 kts | 269° |
| 2026-05-06 12:26 | 38.94649 | -77.45741 | 326 ft | 8 kts | 192° |
| 2026-05-06 12:27 | 38.94591 | -77.45751 | 326 ft | 9 kts | 182° |
| 2026-05-06 12:27 | 38.94514 | -77.45752 | 326 ft | 13 kts | 180° |
| 2026-05-06 12:27 | 38.94407 | -77.45752 | 326 ft | 18 kts | 180° |
| 2026-05-06 12:27 | 38.94234 | -77.45751 | 326 ft | 24 kts | 179° |
| 2026-05-06 12:28 | 38.94075 | -77.45750 | 326 ft | 21 kts | 180° |
| 2026-05-06 12:28 | 38.93944 | -77.45749 | 326 ft | 17 kts | 179° |
| 2026-05-06 12:28 | 38.93862 | -77.45751 | 326 ft | 7 kts | 183° |
| 2026-05-06 12:28 | 38.93829 | -77.45783 | 326 ft | 7 kts | 285° |
| 2026-05-06 12:29 | 38.93852 | -77.45839 | 326 ft | 3 kts | 309° |
| 2026-05-06 12:29 | 38.93857 | -77.45848 | 326 ft | 0 kts | 311° |
| 2026-05-06 12:29 | 38.93874 | -77.45873 | 326 ft | 7 kts | 311° |
| 2026-05-06 12:30 | 38.93899 | -77.45891 | 326 ft | 2 kts | 28° |
| 2026-05-06 12:30 | 38.93921 | -77.45838 | 326 ft | 16 kts | 78° |
| 2026-05-06 12:30 | 38.93891 | -77.45764 | 326 ft | 5 kts | 171° |
| 2026-05-06 12:30 | 38.93852 | -77.45757 | 326 ft | 10 kts | 178° |
| 2026-05-06 12:31 | 38.93757 | -77.45707 | 326 ft | 13 kts | 143° |
| 2026-05-06 12:31 | 38.93640 | -77.45716 | 326 ft | 26 kts | 194° |
| 2026-05-06 12:31 | 38.93515 | -77.45765 | 326 ft | 15 kts | 209° |
| 2026-05-06 12:31 | 38.93447 | -77.45823 | 326 ft | 9 kts | 267° |
| 2026-05-06 12:32 | 38.93558 | -77.46232 | 326 ft | 91 kts | 287° |
| 2026-05-06 12:32 | 38.93873 | -77.47327 | 326 ft | 169 kts | 288° |
| 2026-05-06 12:32 | 38.94329 | -77.49009 | 518 ft | 222 kts | 288° |
| 2026-05-06 12:32 | 38.94825 | -77.51017 | 1355 ft | 245 kts | 287° |
| 2026-05-06 12:33 | 38.95416 | -77.53100 | 2415 ft | 256 kts | 294° |
| 2026-05-06 12:33 | 38.96322 | -77.55134 | 3293 ft | 265 kts | 304° |
| 2026-05-06 12:33 | 38.97425 | -77.57056 | 4269 ft | 263 kts | 306° |
| 2026-05-06 12:33 | 38.98562 | -77.58893 | 5218 ft | 268 kts | 307° |
| 2026-05-06 12:34 | 38.99754 | -77.60783 | 6167 ft | 272 kts | 306° |
| 2026-05-06 12:34 | 39.00940 | -77.62650 | 7105 ft | 273 kts | 306° |
| 2026-05-06 12:34 | 39.02161 | -77.64551 | 8063 ft | 277 kts | 307° |
| 2026-05-06 12:34 | 39.03402 | -77.66476 | 9011 ft | 281 kts | 307° |
| 2026-05-06 12:35 | 39.04685 | -77.68387 | 9954 ft | 285 kts | 312° |
| 2026-05-06 12:35 | 39.06369 | -77.69790 | 10919 ft | 294 kts | 335° |
| 2026-05-06 12:35 | 39.08419 | -77.70174 | 11881 ft | 305 kts | 0° |
| 2026-05-06 12:35 | 39.10466 | -77.69449 | 12838 ft | 312 kts | 24° |
| 2026-05-06 12:36 | 39.12190 | -77.67663 | 13802 ft | 316 kts | 49° |
| 2026-05-06 12:36 | 39.13206 | -77.65183 | 14752 ft | 316 kts | 73° |
| 2026-05-06 12:36 | 39.13500 | -77.62400 | 15697 ft | 312 kts | 89° |
| 2026-05-06 12:36 | 39.13471 | -77.59611 | 16649 ft | 307 kts | 93° |
| 2026-05-06 12:37 | 39.13365 | -77.56918 | 17589 ft | 298 kts | 94° |
| 2026-05-06 12:37 | 39.13255 | -77.54310 | 18530 ft | 288 kts | 94° |
| 2026-05-06 12:37 | 39.13135 | -77.51780 | 19414 ft | 277 kts | 95° |
| 2026-05-06 12:37 | 39.13000 | -77.49351 | 20202 ft | 267 kts | 95° |
| 2026-05-06 12:38 | 39.12864 | -77.46992 | 20801 ft | 263 kts | 95° |
| 2026-05-06 12:38 | 39.12733 | -77.44664 | 21313 ft | 261 kts | 95° |
| 2026-05-06 12:38 | 39.12605 | -77.42316 | 21768 ft | 260 kts | 95° |
| 2026-05-06 12:38 | 39.12478 | -77.40012 | 22188 ft | 259 kts | 95° |
| 2026-05-06 12:39 | 39.12350 | -77.37702 | 22577 ft | 258 kts | 95° |
| 2026-05-06 12:39 | 39.12219 | -77.35430 | 23029 ft | 251 kts | 96° |
| 2026-05-06 12:39 | 39.12087 | -77.33158 | 23331 ft | 251 kts | 96° |
| 2026-05-06 12:39 | 39.11954 | -77.30880 | 23204 ft | 257 kts | 96° |
| 2026-05-06 12:40 | 39.11816 | -77.28560 | 21140 ft | 281 kts | 96° |
| 2026-05-06 12:40 | 39.11628 | -77.25560 | 18795 ft | 375 kts | 96° |
| 2026-05-06 12:40 | 39.11401 | -77.22034 | 18227 ft | 411 kts | 96° |
| 2026-05-06 12:40 | 39.11163 | -77.18327 | 18557 ft | 417 kts | 95° |
| 2026-05-06 12:41 | 39.10932 | -77.14637 | 19205 ft | 416 kts | 95° |
| 2026-05-06 12:41 | 39.10696 | -77.10850 | 19499 ft | 425 kts | 95° |
| 2026-05-06 12:41 | 39.10450 | -77.07007 | 19791 ft | 433 kts | 95° |
| 2026-05-06 12:41 | 39.10235 | -77.03078 | 20013 ft | 442 kts | 94° |
| 2026-05-06 12:42 | 39.10034 | -76.99077 | 20258 ft | 449 kts | 94° |
| 2026-05-06 12:42 | 39.09827 | -76.95038 | 20526 ft | 456 kts | 95° |
| 2026-05-06 12:42 | 39.09609 | -76.90931 | 20803 ft | 462 kts | 95° |
| 2026-05-06 12:42 | 39.09388 | -76.86800 | 21201 ft | 464 kts | 95° |
| 2026-05-06 12:43 | 39.09161 | -76.82655 | 21697 ft | 464 kts | 95° |
| 2026-05-06 12:43 | 39.08920 | -76.78470 | 22043 ft | 467 kts | 95° |
| 2026-05-06 12:43 | 39.08675 | -76.74325 | 22338 ft | 471 kts | 95° |
| 2026-05-06 12:43 | 39.08423 | -76.70045 | 22659 ft | 474 kts | 95° |
| 2026-05-06 12:44 | 39.08171 | -76.65804 | 22972 ft | 477 kts | 95° |
| 2026-05-06 12:44 | 39.07918 | -76.61586 | 23279 ft | 480 kts | 95° |
| 2026-05-06 12:44 | 39.07655 | -76.57258 | 23741 ft | 478 kts | 95° |
| 2026-05-06 12:44 | 39.07390 | -76.53041 | 24092 ft | 479 kts | 95° |
| 2026-05-06 12:45 | 39.07110 | -76.48735 | 24431 ft | 481 kts | 95° |
| 2026-05-06 12:45 | 39.06821 | -76.44443 | 24828 ft | 481 kts | 96° |
| 2026-05-06 12:45 | 39.06212 | -76.35887 | 25506 ft | 483 kts | 96° |
| 2026-05-06 12:46 | 39.05913 | -76.31530 | 25733 ft | 486 kts | 96° |
| 2026-05-06 12:46 | 39.05618 | -76.27183 | 25982 ft | 489 kts | 96° |
| 2026-05-06 12:46 | 39.05323 | -76.22831 | 26261 ft | 491 kts | 95° |
| 2026-05-06 12:46 | 39.05043 | -76.18449 | 26509 ft | 494 kts | 95° |
| 2026-05-06 12:47 | 39.04769 | -76.14066 | 26758 ft | 496 kts | 95° |
| 2026-05-06 12:47 | 39.04502 | -76.09585 | 27026 ft | 497 kts | 95° |
| 2026-05-06 12:47 | 39.04312 | -76.05175 | 27373 ft | 497 kts | 92° |
| 2026-05-06 12:47 | 39.04376 | -76.00702 | 27700 ft | 497 kts | 88° |
| 2026-05-06 12:48 | 39.04599 | -75.96263 | 27931 ft | 500 kts | 86° |
| 2026-05-06 12:48 | 39.04876 | -75.91811 | 28139 ft | 502 kts | 85° |
| 2026-05-06 12:48 | 39.05162 | -75.87290 | 28397 ft | 502 kts | 85° |
| 2026-05-06 12:48 | 39.05435 | -75.82818 | 28647 ft | 503 kts | 86° |
| 2026-05-06 12:49 | 39.05673 | -75.78370 | 28801 ft | 505 kts | 86° |
| 2026-05-06 12:49 | 39.05898 | -75.73816 | 28934 ft | 508 kts | 86° |
| 2026-05-06 12:49 | 39.06123 | -75.69272 | 28976 ft | 513 kts | 86° |
| 2026-05-06 12:50 | 39.06448 | -75.61750 | 28975 ft | 521 kts | 88° |
| 2026-05-06 12:50 | 39.06764 | -75.52414 | 28972 ft | 525 kts | 88° |
| 2026-05-06 12:51 | 39.07098 | -75.42994 | 29013 ft | 528 kts | 87° |
| 2026-05-06 12:51 | 39.07529 | -75.33555 | 28998 ft | 528 kts | 83° |
| 2026-05-06 12:51 | 39.08294 | -75.29255 | 29019 ft | 526 kts | 70° |
| 2026-05-06 12:52 | 39.09855 | -75.25037 | 29003 ft | 525 kts | 59° |
| 2026-05-06 12:52 | 39.13411 | -75.18694 | 29002 ft | 523 kts | 50° |
| 2026-05-06 12:53 | 39.17863 | -75.11254 | 28997 ft | 526 kts | 53° |
| 2026-05-06 12:53 | 39.21991 | -75.03443 | 29007 ft | 527 kts | 56° |
| 2026-05-06 12:54 | 39.25984 | -74.95444 | 29005 ft | 525 kts | 56° |
| 2026-05-06 12:54 | 39.30035 | -74.87500 | 29005 ft | 528 kts | 55° |
| 2026-05-06 12:55 | 39.34186 | -74.79716 | 28995 ft | 527 kts | 54° |
| 2026-05-06 12:55 | 39.38303 | -74.71873 | 29087 ft | 525 kts | 56° |
| 2026-05-06 12:55 | 39.40383 | -74.67824 | 29544 ft | 520 kts | 56° |
| 2026-05-06 12:56 | 39.42389 | -74.63928 | 29870 ft | 518 kts | 56° |
| 2026-05-06 12:56 | 39.44373 | -74.60071 | 30170 ft | 516 kts | 56° |
| 2026-05-06 12:56 | 39.46373 | -74.56172 | 30436 ft | 515 kts | 56° |
| 2026-05-06 12:56 | 39.48382 | -74.52360 | 30697 ft | 514 kts | 54° |
| 2026-05-06 12:57 | 39.50440 | -74.48530 | 30885 ft | 515 kts | 54° |
| 2026-05-06 12:57 | 39.52495 | -74.44748 | 31078 ft | 515 kts | 54° |
| 2026-05-06 12:57 | 39.54537 | -74.40981 | 31291 ft | 514 kts | 54° |
| 2026-05-06 12:57 | 39.56602 | -74.37134 | 31477 ft | 515 kts | 54° |
| 2026-05-06 12:58 | 39.58641 | -74.33359 | 31664 ft | 515 kts | 54° |
| 2026-05-06 12:58 | 39.60694 | -74.29577 | 31844 ft | 515 kts | 54° |
| 2026-05-06 12:58 | 39.62774 | -74.25753 | 32028 ft | 515 kts | 54° |
| 2026-05-06 12:58 | 39.64841 | -74.21927 | 32227 ft | 514 kts | 54° |
| 2026-05-06 12:59 | 39.66866 | -74.18156 | 32484 ft | 512 kts | 53° |
| 2026-05-06 12:59 | 39.69182 | -74.14548 | 32697 ft | 510 kts | 45° |
| 2026-05-06 12:59 | 39.71755 | -74.11466 | 32821 ft | 504 kts | 38° |
| 2026-05-06 12:59 | 39.74503 | -74.08708 | 32460 ft | 495 kts | 35° |
| 2026-05-06 13:00 | 39.77325 | -74.06123 | 31504 ft | 497 kts | 32° |
| 2026-05-06 13:00 | 39.80238 | -74.03695 | 30819 ft | 493 kts | 30° |
| 2026-05-06 13:00 | 39.83171 | -74.01356 | 30062 ft | 491 kts | 30° |
| 2026-05-06 13:00 | 39.86074 | -73.99069 | 29171 ft | 485 kts | 30° |
| 2026-05-06 13:01 | 39.88927 | -73.96778 | 28437 ft | 474 kts | 30° |
| 2026-05-06 13:01 | 39.91575 | -73.94618 | 27637 ft | 467 kts | 30° |
| 2026-05-06 13:01 | 39.94420 | -73.92289 | 26751 ft | 460 kts | 31° |
| 2026-05-06 13:01 | 39.97110 | -73.90066 | 25765 ft | 457 kts | 31° |
| 2026-05-06 13:02 | 39.99810 | -73.87801 | 24877 ft | 457 kts | 31° |
| 2026-05-06 13:02 | 40.02472 | -73.85558 | 24289 ft | 453 kts | 32° |
| 2026-05-06 13:02 | 40.04832 | -73.82954 | 23810 ft | 449 kts | 47° |
| 2026-05-06 13:02 | 40.06565 | -73.79584 | 23344 ft | 444 kts | 63° |
| 2026-05-06 13:03 | 40.07479 | -73.75733 | 22724 ft | 441 kts | 81° |
| 2026-05-06 13:03 | 40.07481 | -73.71748 | 22046 ft | 439 kts | 99° |
| 2026-05-06 13:03 | 40.06574 | -73.67967 | 21533 ft | 431 kts | 117° |
| 2026-05-06 13:03 | 40.04886 | -73.64860 | 21177 ft | 417 kts | 136° |
| 2026-05-06 13:04 | 40.02614 | -73.62663 | 20965 ft | 400 kts | 155° |
| 2026-05-06 13:04 | 40.00014 | -73.61582 | 20798 ft | 381 kts | 174° |
| 2026-05-06 13:04 | 39.97432 | -73.61701 | 20591 ft | 363 kts | 195° |
| 2026-05-06 13:04 | 39.95172 | -73.62899 | 20231 ft | 344 kts | 215° |
| 2026-05-06 13:05 | 39.93473 | -73.64958 | 19739 ft | 332 kts | 234° |
| 2026-05-06 13:05 | 39.92362 | -73.67554 | 19142 ft | 326 kts | 248° |
| 2026-05-06 13:05 | 39.91722 | -73.70378 | 18366 ft | 328 kts | 259° |
| 2026-05-06 13:05 | 39.91403 | -73.73304 | 17747 ft | 324 kts | 259° |
| 2026-05-06 13:06 | 39.90631 | -73.76042 | 17174 ft | 318 kts | 239° |
| 2026-05-06 13:06 | 39.89157 | -73.78105 | 16599 ft | 315 kts | 218° |
| 2026-05-06 13:06 | 39.87228 | -73.79520 | 15811 ft | 320 kts | 206° |
| 2026-05-06 13:06 | 39.85118 | -73.80447 | 15110 ft | 322 kts | 196° |
| 2026-05-06 13:07 | 39.82896 | -73.80774 | 14523 ft | 322 kts | 182° |
| 2026-05-06 13:07 | 39.80661 | -73.80766 | 13755 ft | 322 kts | 188° |
| 2026-05-06 13:07 | 39.78552 | -73.81524 | 13245 ft | 309 kts | 208° |
| 2026-05-06 13:07 | 39.76900 | -73.83206 | 12705 ft | 298 kts | 232° |
| 2026-05-06 13:08 | 39.75973 | -73.85551 | 12151 ft | 292 kts | 255° |
| 2026-05-06 13:08 | 39.75929 | -73.88185 | 11637 ft | 294 kts | 280° |
| 2026-05-06 13:08 | 39.76802 | -73.90563 | 11354 ft | 294 kts | 306° |
| 2026-05-06 13:08 | 39.78359 | -73.92226 | 11214 ft | 294 kts | 326° |
| 2026-05-06 13:09 | 39.80235 | -73.93334 | 11074 ft | 299 kts | 338° |
| 2026-05-06 13:09 | 39.82303 | -73.93728 | 11036 ft | 304 kts | 356° |
| 2026-05-06 13:09 | 39.84450 | -73.93467 | 11021 ft | 309 kts | 6° |
| 2026-05-06 13:09 | 39.86545 | -73.92848 | 11007 ft | 312 kts | 12° |
| 2026-05-06 13:10 | 39.88644 | -73.92023 | 10989 ft | 313 kts | 15° |
| 2026-05-06 13:10 | 39.90697 | -73.91120 | 11002 ft | 314 kts | 16° |
| 2026-05-06 13:10 | 39.92759 | -73.90172 | 10996 ft | 315 kts | 17° |
| 2026-05-06 13:10 | 39.94819 | -73.89198 | 11000 ft | 315 kts | 17° |
| 2026-05-06 13:11 | 39.96891 | -73.88238 | 11004 ft | 315 kts | 17° |
| 2026-05-06 13:11 | 39.98948 | -73.87295 | 11007 ft | 313 kts | 17° |
| 2026-05-06 13:11 | 40.01010 | -73.86380 | 11012 ft | 314 kts | 16° |
| 2026-05-06 13:11 | 40.03099 | -73.85542 | 10985 ft | 314 kts | 13° |
| 2026-05-06 13:12 | 40.05220 | -73.84850 | 11005 ft | 312 kts | 10° |
| 2026-05-06 13:12 | 40.07358 | -73.84249 | 11011 ft | 313 kts | 9° |
| 2026-05-06 13:12 | 40.09499 | -73.83668 | 11015 ft | 313 kts | 9° |
| 2026-05-06 13:12 | 40.11532 | -73.83119 | 11007 ft | 313 kts | 9° |
| 2026-05-06 13:13 | 40.13686 | -73.82523 | 11010 ft | 313 kts | 9° |
| 2026-05-06 13:13 | 40.15810 | -73.81940 | 10991 ft | 312 kts | 8° |
| 2026-05-06 13:13 | 40.17933 | -73.81371 | 10992 ft | 312 kts | 8° |
| 2026-05-06 13:13 | 40.20061 | -73.80799 | 10992 ft | 313 kts | 9° |
| 2026-05-06 13:14 | 40.22211 | -73.80222 | 11001 ft | 311 kts | 9° |
| 2026-05-06 13:14 | 40.24335 | -73.79652 | 10995 ft | 312 kts | 8° |
| 2026-05-06 13:14 | 40.26453 | -73.79068 | 11009 ft | 311 kts | 9° |
| 2026-05-06 13:14 | 40.28554 | -73.78453 | 11001 ft | 312 kts | 9° |
| 2026-05-06 13:15 | 40.30692 | -73.77829 | 11017 ft | 311 kts | 9° |
| 2026-05-06 13:15 | 40.32795 | -73.77221 | 11002 ft | 312 kts | 10° |
| 2026-05-06 13:15 | 40.34207 | -73.76803 | 11017 ft | 311 kts | 10° |
| 2026-05-06 13:15 | 40.37044 | -73.75973 | 11015 ft | 312 kts | 9° |
| 2026-05-06 13:16 | 40.39153 | -73.75364 | 10992 ft | 312 kts | 9° |
| 2026-05-06 13:16 | 40.41290 | -73.74746 | 10996 ft | 313 kts | 9° |
| 2026-05-06 13:16 | 40.43413 | -73.74133 | 10992 ft | 313 kts | 9° |
| 2026-05-06 13:16 | 40.45537 | -73.73521 | 10996 ft | 313 kts | 10° |